createdAt,value
2022-10-31T00:01:25.521Z,11.20
2022-10-31T00:03:52.863Z,10.23
2022-10-31T00:06:19.810Z,12.30
2022-10-31T00:08:47.453Z,13.20
2022-10-31T00:11:14.474Z,9.27
2022-10-31T00:13:40.996Z,12.67
2022-10-31T00:16:17.504Z,11.73
2022-10-31T00:18:44.281Z,10.30
2022-10-31T00:21:10.812Z,15.27
2022-10-31T00:23:37.394Z,13.37
2022-10-31T00:26:05.197Z,10.87
2022-10-31T00:28:32.951Z,13.90
2022-10-31T00:31:04.401Z,12.50
2022-10-31T00:33:31.163Z,13.37
2022-10-31T00:35:57.871Z,11.23
2022-10-31T00:38:24.539Z,8.27
2022-10-31T00:40:51.126Z,8.63
2022-10-31T00:43:17.678Z,10.53
2022-10-31T00:45:44.705Z,8.57
2022-10-31T00:48:11.394Z,7.13
2022-10-31T00:50:38.570Z,10.60
2022-10-31T00:53:05.704Z,7.53
2022-10-31T00:55:32.594Z,10.20
2022-10-31T00:57:59.509Z,11.23
2022-10-31T01:00:26.627Z,10.87
2022-10-31T01:02:53.250Z,11.97
2022-10-31T01:05:20.041Z,12.53
2022-10-31T01:07:47.118Z,14.73
2022-10-31T01:10:13.812Z,9.50
2022-10-31T01:12:45.963Z,14.17
2022-10-31T01:15:17.135Z,11.20
2022-10-31T01:17:43.751Z,12.73
2022-10-31T01:20:13.656Z,15.23
2022-10-31T01:22:40.279Z,10.80
2022-10-31T01:25:08.474Z,10.93
2022-10-31T01:27:35.365Z,10.90
2022-10-31T01:30:01.920Z,11.67
2022-10-31T01:32:29.876Z,9.53
2022-10-31T01:34:56.568Z,11.50
2022-10-31T01:37:23.145Z,10.30
2022-10-31T01:39:50.121Z,10.37
2022-10-31T01:42:20.775Z,11.33
2022-10-31T01:44:58.824Z,8.50
2022-10-31T01:47:34.881Z,14.97
2022-10-31T01:50:06.700Z,9.23
2022-10-31T01:52:41.482Z,6.93
2022-10-31T01:55:19.224Z,10.83
2022-10-31T01:57:50.972Z,12.70
2022-10-31T02:00:18.109Z,14.30
2022-10-31T02:02:46.998Z,12.50
2022-10-31T02:05:22.312Z,9.97
2022-10-31T02:07:54.885Z,14.10
2022-10-31T02:10:28.234Z,9.27
2022-10-31T02:12:58.034Z,9.50
2022-10-31T02:15:25.290Z,8.60
2022-10-31T02:17:52.692Z,10.93
2022-10-31T02:20:23.536Z,8.93
2022-10-31T02:23:02.325Z,10.50
2022-10-31T02:25:51.078Z,8.83
2022-10-31T02:28:49.384Z,9.80
2022-10-31T02:31:38.877Z,11.37
2022-10-31T02:34:23.804Z,9.33
2022-10-31T02:36:56.232Z,8.77
2022-10-31T02:39:25.113Z,12.83
2022-10-31T02:42:11.863Z,6.57
2022-10-31T02:45:01.756Z,9.83
2022-10-31T02:47:30.592Z,13.93
2022-10-31T02:50:06.695Z,7.80
2022-10-31T02:52:35.477Z,6.50
2022-10-31T02:55:35.662Z,12.47
2022-10-31T02:58:11.984Z,10.33
2022-10-31T03:01:00.936Z,13.53
2022-10-31T03:03:41.876Z,11.77
2022-10-31T03:06:21.462Z,8.70
2022-10-31T03:09:16.163Z,8.53
2022-10-31T03:11:55.456Z,6.03
2022-10-31T03:14:31.191Z,7.80
2022-10-31T03:17:05.015Z,8.17
2022-10-31T03:19:37.036Z,7.40
2022-10-31T03:22:11.298Z,8.73
2022-10-31T03:24:40.351Z,5.97
2022-10-31T03:27:10.670Z,11.17
2022-10-31T03:29:40.336Z,9.63
2022-10-31T03:32:35.550Z,13.23
2022-10-31T03:35:08.173Z,7.97
2022-10-31T03:37:36.585Z,10.03
2022-10-31T03:40:06.026Z,7.83
2022-10-31T03:42:38.412Z,9.00
2022-10-31T03:45:15.489Z,6.87
2022-10-31T03:47:44.581Z,8.17
2022-10-31T03:50:15.096Z,7.70
2022-10-31T03:52:55.768Z,8.30
2022-10-31T03:55:32.867Z,10.27
2022-10-31T03:58:28.566Z,8.47
2022-10-31T04:00:58.461Z,10.20
2022-10-31T04:03:31.038Z,10.43
2022-10-31T04:06:06.495Z,6.20
2022-10-31T04:08:41.553Z,8.53
2022-10-31T04:11:12.690Z,6.37
2022-10-31T04:13:45.248Z,9.03
2022-10-31T04:16:17.531Z,9.23
2022-10-31T04:18:45.081Z,8.63
2022-10-31T04:21:11.685Z,13.43
2022-10-31T04:23:38.271Z,8.57
2022-10-31T04:26:14.212Z,8.73
2022-10-31T04:28:43.684Z,8.47
2022-10-31T04:31:13.046Z,9.27
2022-10-31T04:33:40.088Z,8.80
2022-10-31T04:36:07.313Z,7.67
2022-10-31T04:38:34.214Z,6.73
2022-10-31T04:41:03.640Z,8.90
2022-10-31T04:43:33.237Z,8.50
2022-10-31T04:46:01.125Z,7.10
2022-10-31T04:48:28.289Z,7.93
2022-10-31T04:51:02.526Z,7.70
2022-10-31T04:53:29.871Z,7.63
2022-10-31T04:56:16.688Z,8.20
2022-10-31T04:58:46.741Z,10.60
2022-10-31T05:01:13.815Z,8.73
2022-10-31T05:03:40.586Z,10.03
2022-10-31T05:06:07.998Z,8.07
2022-10-31T05:08:35.395Z,6.60
2022-10-31T05:11:05.651Z,11.00
2022-10-31T05:13:33.759Z,7.50
2022-10-31T05:16:12.488Z,8.33
2022-10-31T05:19:08.443Z,8.60
2022-10-31T05:21:53.588Z,8.70
2022-10-31T05:24:22.685Z,7.83
2022-10-31T05:26:50.210Z,9.33
2022-10-31T05:29:17.620Z,7.83
2022-10-31T05:31:44.215Z,7.70
2022-10-31T05:34:23.794Z,5.43
2022-10-31T05:37:13.971Z,8.00
2022-10-31T05:39:41.995Z,6.77
2022-10-31T05:42:14.319Z,8.43
2022-10-31T05:44:41.819Z,7.73
2022-10-31T05:47:31.308Z,7.93
2022-10-31T05:50:33.491Z,10.80
2022-10-31T05:53:08.921Z,10.37
2022-10-31T05:55:37.729Z,8.63
2022-10-31T05:58:11.011Z,8.03
2022-10-31T06:00:39.769Z,9.47
2022-10-31T06:03:10.609Z,12.40
2022-10-31T06:05:50.839Z,8.23
2022-10-31T06:08:21.438Z,8.97
2022-10-31T06:10:49.169Z,10.07
2022-10-31T06:13:21.098Z,8.80
2022-10-31T06:16:00.106Z,10.23
2022-10-31T06:18:34.115Z,11.27
2022-10-31T06:21:01.053Z,6.30
2022-10-31T06:23:28.695Z,9.03
2022-10-31T06:26:15.176Z,6.73
2022-10-31T06:28:41.929Z,9.23
2022-10-31T06:31:26.879Z,8.00
2022-10-31T06:33:53.475Z,7.37
2022-10-31T06:36:20.154Z,8.87
2022-10-31T06:38:47.371Z,11.50
2022-10-31T06:41:17.205Z,8.63
2022-10-31T06:43:48.240Z,9.27
2022-10-31T06:46:43.522Z,11.27
2022-10-31T06:49:28.643Z,8.37
2022-10-31T06:51:59.598Z,9.00
2022-10-31T06:54:26.596Z,8.03
2022-10-31T06:56:54.253Z,8.93
2022-10-31T06:59:21.566Z,7.33
2022-10-31T07:02:11.686Z,12.03
2022-10-31T07:04:39.946Z,10.60
2022-10-31T07:07:07.258Z,11.20
2022-10-31T07:09:35.810Z,9.97
2022-10-31T07:12:04.302Z,9.57
2022-10-31T07:14:33.073Z,9.00
2022-10-31T07:17:00.773Z,9.63
2022-10-31T07:19:33.508Z,8.17
2022-10-31T07:22:00.185Z,9.17
2022-10-31T07:24:28.886Z,11.67
2022-10-31T07:27:15.348Z,7.00
2022-10-31T07:29:43.454Z,7.97
2022-10-31T07:32:10.043Z,10.00
2022-10-31T07:34:44.940Z,7.13
2022-10-31T07:37:22.519Z,8.77
2022-10-31T07:39:49.056Z,12.33
2022-10-31T07:42:16.280Z,14.83
2022-10-31T07:44:45.239Z,15.47
2022-10-31T07:47:30.181Z,25.07
2022-10-31T07:50:18.504Z,25.40
2022-10-31T07:53:12.312Z,23.03
2022-10-31T07:55:39.662Z,21.03
2022-10-31T07:58:10.640Z,23.73
2022-10-31T08:00:44.968Z,17.03
2022-10-31T08:03:17.292Z,10.70
2022-10-31T08:06:02.724Z,10.33
2022-10-31T08:08:32.295Z,7.50
2022-10-31T08:11:02.134Z,10.93
2022-10-31T08:13:30.308Z,10.70
2022-10-31T08:16:04.245Z,9.63
2022-10-31T08:18:32.844Z,8.47
2022-10-31T08:20:59.798Z,12.73
2022-10-31T08:23:26.346Z,15.07
2022-10-31T08:25:55.895Z,16.10
2022-10-31T08:28:23.530Z,16.20
2022-10-31T08:30:51.761Z,14.33
2022-10-31T08:33:38.543Z,15.00
2022-10-31T08:36:23.852Z,13.80
2022-10-31T08:39:01.481Z,16.20
2022-10-31T08:41:30.501Z,14.30
2022-10-31T08:43:58.695Z,14.93
2022-10-31T08:46:25.437Z,13.37
2022-10-31T08:48:52.731Z,13.33
2022-10-31T08:51:21.861Z,13.87
2022-10-31T08:53:53.189Z,13.77
2022-10-31T08:56:39.811Z,22.47
2022-10-31T08:59:24.112Z,16.00
2022-10-31T09:02:23.275Z,19.37
2022-10-31T09:04:52.851Z,16.60
2022-10-31T09:07:20.909Z,15.07
2022-10-31T09:09:48.075Z,15.43
2022-10-31T09:12:14.703Z,12.63
2022-10-31T09:14:56.256Z,15.57
2022-10-31T09:17:31.474Z,14.30
2022-10-31T09:20:16.835Z,13.00
2022-10-31T09:22:43.351Z,11.07
2022-10-31T09:25:10.212Z,11.83
2022-10-31T09:27:38.251Z,11.67
2022-10-31T09:30:07.414Z,10.90
2022-10-31T09:32:34.540Z,10.43
2022-10-31T09:35:01.300Z,9.87
2022-10-31T09:37:28.251Z,11.33
2022-10-31T09:39:54.878Z,12.40
2022-10-31T09:42:53.766Z,11.13
2022-10-31T09:45:27.504Z,9.70
2022-10-31T09:48:15.954Z,10.43
2022-10-31T09:51:16.062Z,8.70
2022-10-31T09:54:31.127Z,8.47
2022-10-31T09:57:01.143Z,8.40
2022-10-31T09:59:34.478Z,8.17
2022-10-31T10:02:14.689Z,5.27
2022-10-31T10:04:52.158Z,8.33
2022-10-31T10:08:22.335Z,8.57
2022-10-31T10:11:25.942Z,6.40
2022-10-31T10:14:19.382Z,6.73
2022-10-31T10:17:07.149Z,6.67
2022-10-31T10:20:09.276Z,7.73
2022-10-31T10:23:24.037Z,5.43
2022-10-31T10:26:06.092Z,7.33
2022-10-31T10:28:39.672Z,8.10
2022-10-31T10:31:15.513Z,8.23
2022-10-31T10:33:56.953Z,7.80
2022-10-31T10:39:47.928Z,4.03
2022-10-31T10:42:35.121Z,14.10
2022-10-31T10:45:33.470Z,8.90
2022-10-31T10:48:10.727Z,12.47
2022-10-31T10:50:42.995Z,8.80
2022-10-31T10:53:22.195Z,6.20
2022-10-31T10:55:58.354Z,10.23
2022-10-31T10:58:24.977Z,14.40
2022-10-31T11:00:54.372Z,17.33
2022-10-31T11:03:20.962Z,16.07
2022-10-31T11:05:53.267Z,12.67
2022-10-31T11:08:36.770Z,7.40
2022-10-31T11:11:18.318Z,5.07
2022-10-31T11:13:48.209Z,6.07
2022-10-31T11:16:28.914Z,9.23
2022-10-31T11:19:08.775Z,5.20
2022-10-31T11:21:35.720Z,5.43
2022-10-31T11:24:23.121Z,8.13
2022-10-31T11:26:51.749Z,10.03
2022-10-31T11:29:25.701Z,6.37
2022-10-31T11:31:57.744Z,9.53
2022-10-31T11:34:30.932Z,7.33
2022-10-31T11:37:10.393Z,8.40
2022-10-31T11:39:43.412Z,7.30
2022-10-31T11:42:09.976Z,7.77
2022-10-31T11:44:36.921Z,7.60
2022-10-31T11:47:12.953Z,7.43
2022-10-31T11:49:42.078Z,5.37
2022-10-31T11:52:16.112Z,9.07
2022-10-31T11:54:45.999Z,6.47
2022-10-31T11:57:45.350Z,6.27
2022-10-31T12:03:13.188Z,6.43
2022-10-31T12:05:42.342Z,5.13
2022-10-31T12:08:13.017Z,6.33
2022-10-31T12:11:12.258Z,6.60
2022-10-31T12:14:03.715Z,7.93
2022-10-31T12:16:54.262Z,7.93
2022-10-31T12:19:20.804Z,6.97
2022-10-31T12:22:16.100Z,6.23
2022-10-31T12:25:14.018Z,5.80
2022-10-31T12:28:03.943Z,6.97
2022-10-31T12:30:39.598Z,7.23
2022-10-31T12:33:24.198Z,7.60
2022-10-31T12:36:12.488Z,6.50
2022-10-31T12:38:56.912Z,7.87
2022-10-31T12:42:01.919Z,7.77
2022-10-31T12:44:52.068Z,6.93
2022-10-31T12:47:33.601Z,6.23
2022-10-31T12:50:12.818Z,7.63
2022-10-31T12:52:42.228Z,4.43
2022-10-31T12:55:27.491Z,6.60
2022-10-31T12:58:04.302Z,7.23
2022-10-31T13:00:34.922Z,5.83
2022-10-31T13:03:24.518Z,7.23
2022-10-31T13:05:58.224Z,8.23
2022-10-31T13:08:36.107Z,6.00
2022-10-31T13:14:57.330Z,6.13
2022-10-31T13:18:13.717Z,7.37
2022-10-31T13:20:44.379Z,6.13
2022-10-31T13:23:49.900Z,5.40
2022-10-31T13:26:21.304Z,9.23
2022-10-31T13:29:40.664Z,7.90
2022-10-31T13:32:08.208Z,7.93
2022-10-31T13:34:40.507Z,8.07
2022-10-31T13:37:37.657Z,5.53
2022-10-31T13:40:10.490Z,6.87
2022-10-31T13:43:06.013Z,5.10
2022-10-31T13:45:32.692Z,6.50
2022-10-31T13:48:02.288Z,7.60
2022-10-31T13:50:32.501Z,5.47
2022-10-31T13:53:37.296Z,7.67
2022-10-31T13:56:25.503Z,8.87
2022-10-31T13:59:20.514Z,8.60
2022-10-31T14:01:50.189Z,7.57
2022-10-31T14:04:25.194Z,10.93
2022-10-31T14:06:58.259Z,6.77
2022-10-31T14:09:29.290Z,6.20
2022-10-31T14:11:57.156Z,6.93
2022-10-31T14:14:32.040Z,8.57
2022-10-31T14:16:59.149Z,7.60
2022-10-31T14:19:27.706Z,10.30
2022-10-31T14:21:54.214Z,7.27
2022-10-31T14:24:23.349Z,9.00
2022-10-31T14:27:26.249Z,9.43
2022-10-31T14:29:52.850Z,8.90
2022-10-31T14:32:27.333Z,12.30
2022-10-31T14:34:58.789Z,8.33
2022-10-31T14:37:28.259Z,8.43
2022-10-31T14:40:20.710Z,5.37
2022-10-31T14:43:05.995Z,9.23
2022-10-31T14:46:03.722Z,7.83
2022-10-31T14:48:44.828Z,6.40
2022-10-31T14:51:22.119Z,9.30
2022-10-31T14:53:50.371Z,8.10
2022-10-31T14:56:30.189Z,9.43
2022-10-31T14:59:02.073Z,6.60
2022-10-31T15:01:37.917Z,6.93
2022-10-31T15:04:23.506Z,8.97
2022-10-31T15:06:58.803Z,7.23
2022-10-31T15:09:32.858Z,6.10
2022-10-31T15:12:01.127Z,9.43
2022-10-31T15:14:30.469Z,7.67
2022-10-31T15:16:59.545Z,9.20
2022-10-31T15:19:29.506Z,10.93
2022-10-31T15:21:58.580Z,10.73
2022-10-31T15:24:36.544Z,8.50
2022-10-31T15:27:05.273Z,7.00
2022-10-31T15:29:32.883Z,9.03
2022-10-31T15:32:19.514Z,15.83
2022-10-31T15:34:45.968Z,7.60
2022-10-31T15:37:17.364Z,11.00
2022-10-31T15:39:45.153Z,9.13
2022-10-31T15:42:25.136Z,10.73
2022-10-31T15:45:15.632Z,10.23
2022-10-31T15:47:55.761Z,9.60
2022-10-31T15:50:41.546Z,7.70
2022-10-31T15:53:19.423Z,8.50
2022-10-31T15:55:51.722Z,9.53
2022-10-31T15:58:18.911Z,9.77
2022-10-31T16:00:45.773Z,8.40
2022-10-31T16:03:15.458Z,6.93
2022-10-31T16:05:50.030Z,15.50
2022-10-31T16:08:25.283Z,12.07
2022-10-31T16:10:52.655Z,10.33
2022-10-31T16:13:25.139Z,10.20
2022-10-31T16:16:21.381Z,10.17
2022-10-31T16:18:45.784Z,10.73
2022-10-31T16:21:13.401Z,8.93
2022-10-31T16:23:46.785Z,9.80
2022-10-31T16:26:19.284Z,13.77
2022-10-31T16:29:24.297Z,12.20
2022-10-31T16:31:50.763Z,14.87
2022-10-31T16:34:26.920Z,12.43
2022-10-31T16:36:54.152Z,13.03
2022-10-31T16:39:21.075Z,19.23
2022-10-31T16:41:51.323Z,16.80
2022-10-31T16:44:26.475Z,24.83
2022-10-31T16:47:25.977Z,16.57
2022-10-31T16:49:54.942Z,14.73
2022-10-31T16:52:21.383Z,14.03
2022-10-31T16:54:47.856Z,19.77
2022-10-31T16:57:18.205Z,16.73
2022-10-31T16:59:49.289Z,15.80
2022-10-31T17:02:17.569Z,24.40
2022-10-31T17:04:44.864Z,23.37
2022-10-31T17:07:11.429Z,23.13
2022-10-31T17:09:37.951Z,23.43
2022-10-31T17:12:06.320Z,19.23
2022-10-31T17:14:34.217Z,19.70
2022-10-31T17:17:00.741Z,19.20
2022-10-31T17:19:27.256Z,17.40
2022-10-31T17:21:53.838Z,18.20
2022-10-31T17:24:20.308Z,17.80
2022-10-31T17:26:47.196Z,13.43
2022-10-31T17:29:13.750Z,12.73
2022-10-31T17:31:40.253Z,17.97
2022-10-31T17:34:07.233Z,13.47
2022-10-31T17:36:34.774Z,13.67
2022-10-31T17:39:01.377Z,12.73
2022-10-31T17:41:27.896Z,11.43
2022-10-31T17:43:56.027Z,11.33
2022-10-31T17:46:22.895Z,11.10
2022-10-31T17:48:49.911Z,11.83
2022-10-31T17:51:16.611Z,13.47
2022-10-31T17:53:43.133Z,17.70
2022-10-31T17:56:10.694Z,20.43
2022-10-31T17:58:38.062Z,18.70
2022-10-31T18:01:10.661Z,20.57
2022-10-31T18:03:37.767Z,18.40
2022-10-31T18:06:04.604Z,14.60
2022-10-31T18:08:33.426Z,17.57
2022-10-31T18:11:00.673Z,15.87
2022-10-31T18:13:28.271Z,16.33
2022-10-31T18:15:54.959Z,17.40
2022-10-31T18:18:22.052Z,21.40
2022-10-31T18:20:48.692Z,18.23
2022-10-31T18:23:15.170Z,18.40
2022-10-31T18:25:43.402Z,17.70
2022-10-31T18:28:10.548Z,22.00
2022-10-31T18:30:41.184Z,20.03
2022-10-31T18:33:08.853Z,20.07
2022-10-31T18:35:39.826Z,22.90
2022-10-31T18:38:07.253Z,21.80
2022-10-31T18:40:35.731Z,24.17
2022-10-31T18:43:02.933Z,22.27
2022-10-31T18:45:45.347Z,20.33
2022-10-31T18:48:14.812Z,20.13
2022-10-31T18:50:41.853Z,23.50
2022-10-31T18:53:08.462Z,26.97
2022-10-31T18:55:39.397Z,19.63
2022-10-31T18:58:06.400Z,20.47
2022-10-31T19:00:32.853Z,18.53
2022-10-31T19:02:59.590Z,20.20
2022-10-31T19:05:26.353Z,21.37
2022-10-31T19:07:52.834Z,20.30
2022-10-31T19:10:19.327Z,18.87
2022-10-31T19:12:45.750Z,20.30
2022-10-31T19:15:12.366Z,23.70
2022-10-31T19:17:38.852Z,22.03
2022-10-31T19:20:05.816Z,22.23
2022-10-31T19:22:32.305Z,25.63
2022-10-31T19:24:58.772Z,22.73
2022-10-31T19:27:27.974Z,22.53
2022-10-31T19:29:54.538Z,21.03
2022-10-31T19:32:21.111Z,17.17
2022-10-31T19:34:47.567Z,19.37
2022-10-31T19:37:14.347Z,16.07
2022-10-31T19:39:44.131Z,17.70
2022-10-31T19:42:11.013Z,17.47
2022-10-31T19:44:37.570Z,21.13
2022-10-31T19:47:04.097Z,18.63
2022-10-31T19:49:30.681Z,18.40
2022-10-31T19:51:57.271Z,20.83
2022-10-31T19:54:23.760Z,21.40
2022-10-31T19:56:50.230Z,16.63
2022-10-31T19:59:16.749Z,18.37
2022-10-31T20:01:43.380Z,19.73
2022-10-31T20:04:09.974Z,15.93
2022-10-31T20:06:39.336Z,17.23
2022-10-31T20:09:08.659Z,17.83
2022-10-31T20:11:37.342Z,20.80
2022-10-31T20:14:03.980Z,17.60
2022-10-31T20:16:30.613Z,16.43
2022-10-31T20:18:59.398Z,21.13
2022-10-31T20:21:28.514Z,18.93
2022-10-31T20:24:03.615Z,20.87
2022-10-31T20:26:31.489Z,24.07
2022-10-31T20:28:59.151Z,24.30
2022-10-31T20:31:28.442Z,20.53
2022-10-31T20:33:55.906Z,19.73
2022-10-31T20:36:23.327Z,19.37
2022-10-31T20:38:51.372Z,19.67
2022-10-31T20:41:18.343Z,19.83
2022-10-31T20:43:45.336Z,15.87
2022-10-31T20:46:23.992Z,17.93
2022-10-31T20:48:51.839Z,17.47
2022-10-31T20:51:21.476Z,16.20
2022-10-31T20:53:52.704Z,14.90
2022-10-31T20:56:21.637Z,17.13
2022-10-31T20:58:48.783Z,16.27
2022-10-31T21:01:18.433Z,16.50
2022-10-31T21:03:45.502Z,16.33
2022-10-31T21:06:13.019Z,16.63
2022-10-31T21:08:40.207Z,13.93
2022-10-31T21:11:12.320Z,17.57
2022-10-31T21:13:42.162Z,17.40
2022-10-31T21:16:12.229Z,19.27
2022-10-31T21:18:40.355Z,17.37
2022-10-31T21:21:16.517Z,18.43
2022-10-31T21:23:43.975Z,14.47
2022-10-31T21:26:17.325Z,17.00
2022-10-31T21:28:44.039Z,16.67
2022-10-31T21:31:13.808Z,17.13
2022-10-31T21:33:40.568Z,19.73
2022-10-31T21:36:07.671Z,22.00
2022-10-31T21:38:34.655Z,20.73
2022-10-31T21:41:09.645Z,21.50
2022-10-31T21:43:38.049Z,19.77
2022-10-31T21:46:10.837Z,25.90
2022-10-31T21:48:42.837Z,25.00
2022-10-31T21:51:15.453Z,23.03
2022-10-31T21:54:01.487Z,25.77
2022-10-31T21:56:28.280Z,20.13
2022-10-31T21:58:55.459Z,26.90
2022-10-31T22:01:24.411Z,20.13
2022-10-31T22:03:51.382Z,20.47
2022-10-31T22:06:18.224Z,23.73
2022-10-31T22:08:44.843Z,18.23
2022-10-31T22:11:14.311Z,21.97
2022-10-31T22:13:42.459Z,24.13
2022-10-31T22:16:14.853Z,39.17
2022-10-31T22:18:42.315Z,22.77
2022-10-31T22:21:11.940Z,22.70
2022-10-31T22:23:38.922Z,23.77
2022-10-31T22:26:07.891Z,33.03
2022-10-31T22:28:35.565Z,26.93
2022-10-31T22:31:06.018Z,22.17
2022-10-31T22:33:33.009Z,27.03
2022-10-31T22:36:05.510Z,23.37
2022-10-31T22:38:39.983Z,23.03
2022-10-31T22:41:08.203Z,24.80
2022-10-31T22:43:35.359Z,22.47
2022-10-31T22:46:04.814Z,22.20
2022-10-31T22:48:34.768Z,22.03
2022-10-31T22:51:12.206Z,17.73
2022-10-31T22:53:39.380Z,18.30
2022-10-31T22:56:07.690Z,18.70
2022-10-31T22:58:34.591Z,18.77
2022-10-31T23:01:07.104Z,18.17
2022-10-31T23:03:34.066Z,18.07
2022-10-31T23:06:02.343Z,17.23
2022-10-31T23:08:30.156Z,16.27
2022-10-31T23:10:56.978Z,18.57
2022-10-31T23:13:42.041Z,14.97
2022-10-31T23:16:10.316Z,18.57
2022-10-31T23:18:49.668Z,21.27
2022-10-31T23:21:37.416Z,13.70
2022-10-31T23:24:04.329Z,14.67
2022-10-31T23:26:49.220Z,12.27
2022-10-31T23:29:15.723Z,13.33
2022-10-31T23:31:42.171Z,15.27
2022-10-31T23:34:08.730Z,15.10
2022-10-31T23:36:35.218Z,11.17
2022-10-31T23:39:01.688Z,14.07
2022-10-31T23:41:28.131Z,14.40
2022-10-31T23:43:55.016Z,14.97
2022-10-31T23:46:21.514Z,15.90
2022-10-31T23:48:49.306Z,12.30
2022-10-31T23:51:15.902Z,13.20
2022-10-31T23:53:46.185Z,17.40
2022-10-31T23:56:13.385Z,14.10
2022-10-31T23:58:40.216Z,14.07
